sensor_id;sensor_type;location;lat;lon;timestamp;P1;durP1;ratioP1;P2;durP2;ratioP2
3347;SDS011;1687;49.540;8.574;2024-03-02T00:00:14;23.60;;;13.27;;
3347;SDS011;1687;49.540;8.574;2024-03-02T00:02:43;30.77;;;14.13;;
3347;SDS011;1687;49.540;8.574;2024-03-02T00:05:13;30.17;;;13.80;;
3347;SDS011;1687;49.540;8.574;2024-03-02T00:07:44;27.53;;;12.77;;
3347;SDS011;1687;49.540;8.574;2024-03-02T00:10:12;31.33;;;13.20;;
3347;SDS011;1687;49.540;8.574;2024-03-02T00:12:43;23.47;;;13.83;;
3347;SDS011;1687;49.540;8.574;2024-03-02T00:18:13;29.77;;;13.00;;
3347;SDS011;1687;49.540;8.574;2024-03-02T00:20:46;28.43;;;14.00;;
3347;SDS011;1687;49.540;8.574;2024-03-02T00:23:14;34.43;;;14.60;;
3347;SDS011;1687;49.540;8.574;2024-03-02T00:25:42;23.17;;;11.90;;
3347;SDS011;1687;49.540;8.574;2024-03-02T00:28:19;34.00;;;14.43;;
3347;SDS011;1687;49.540;8.574;2024-03-02T00:31:06;22.10;;;11.43;;
3347;SDS011;1687;49.540;8.574;2024-03-02T00:33:34;24.20;;;11.17;;
3347;SDS011;1687;49.540;8.574;2024-03-02T00:36:05;24.43;;;12.53;;
3347;SDS011;1687;49.540;8.574;2024-03-02T00:38:31;24.17;;;11.67;;
3347;SDS011;1687;49.540;8.574;2024-03-02T00:40:59;24.73;;;12.57;;
3347;SDS011;1687;49.540;8.574;2024-03-02T00:43:43;17.53;;;11.03;;
3347;SDS011;1687;49.540;8.574;2024-03-02T00:46:18;25.00;;;11.00;;
3347;SDS011;1687;49.540;8.574;2024-03-02T00:48:48;19.63;;;10.33;;
3347;SDS011;1687;49.540;8.574;2024-03-02T00:51:22;31.40;;;11.03;;
3347;SDS011;1687;49.540;8.574;2024-03-02T00:53:50;21.57;;;11.47;;
3347;SDS011;1687;49.540;8.574;2024-03-02T00:56:20;25.93;;;12.67;;
3347;SDS011;1687;49.540;8.574;2024-03-02T00:58:45;29.07;;;14.83;;
3347;SDS011;1687;49.540;8.574;2024-03-02T01:01:11;34.63;;;15.50;;
3347;SDS011;1687;49.540;8.574;2024-03-02T01:03:37;34.30;;;15.53;;
3347;SDS011;1687;49.540;8.574;2024-03-02T01:06:03;35.30;;;15.03;;
3347;SDS011;1687;49.540;8.574;2024-03-02T01:08:30;33.40;;;14.47;;
3347;SDS011;1687;49.540;8.574;2024-03-02T01:10:55;29.60;;;14.20;;
3347;SDS011;1687;49.540;8.574;2024-03-02T01:13:22;25.20;;;12.87;;
3347;SDS011;1687;49.540;8.574;2024-03-02T01:15:48;27.80;;;13.63;;
3347;SDS011;1687;49.540;8.574;2024-03-02T01:18:14;24.20;;;12.70;;
3347;SDS011;1687;49.540;8.574;2024-03-02T01:20:40;30.17;;;12.00;;
3347;SDS011;1687;49.540;8.574;2024-03-02T01:23:05;26.17;;;12.17;;
3347;SDS011;1687;49.540;8.574;2024-03-02T01:25:31;27.40;;;12.60;;
3347;SDS011;1687;49.540;8.574;2024-03-02T01:27:57;24.97;;;11.90;;
3347;SDS011;1687;49.540;8.574;2024-03-02T01:30:23;25.10;;;12.23;;
3347;SDS011;1687;49.540;8.574;2024-03-02T01:32:48;25.57;;;12.13;;
3347;SDS011;1687;49.540;8.574;2024-03-02T01:35:14;20.87;;;10.67;;
3347;SDS011;1687;49.540;8.574;2024-03-02T01:37:40;29.10;;;11.53;;
3347;SDS011;1687;49.540;8.574;2024-03-02T01:40:06;20.30;;;10.67;;
3347;SDS011;1687;49.540;8.574;2024-03-02T01:42:37;25.57;;;12.83;;
3347;SDS011;1687;49.540;8.574;2024-03-02T01:45:10;24.47;;;12.90;;
3347;SDS011;1687;49.540;8.574;2024-03-02T01:47:35;23.77;;;12.10;;
3347;SDS011;1687;49.540;8.574;2024-03-02T01:50:01;24.13;;;12.80;;
3347;SDS011;1687;49.540;8.574;2024-03-02T01:52:27;30.23;;;13.43;;
3347;SDS011;1687;49.540;8.574;2024-03-02T01:54:53;26.43;;;13.10;;
3347;SDS011;1687;49.540;8.574;2024-03-02T01:57:19;22.93;;;11.20;;
3347;SDS011;1687;49.540;8.574;2024-03-02T01:59:45;25.70;;;12.03;;
3347;SDS011;1687;49.540;8.574;2024-03-02T02:02:12;22.13;;;12.07;;
3347;SDS011;1687;49.540;8.574;2024-03-02T02:04:39;22.60;;;11.40;;
3347;SDS011;1687;49.540;8.574;2024-03-02T02:07:05;26.40;;;12.20;;
3347;SDS011;1687;49.540;8.574;2024-03-02T02:09:31;22.00;;;10.90;;
3347;SDS011;1687;49.540;8.574;2024-03-02T02:11:57;25.70;;;12.60;;
3347;SDS011;1687;49.540;8.574;2024-03-02T02:14:24;32.63;;;12.47;;
3347;SDS011;1687;49.540;8.574;2024-03-02T02:16:50;28.30;;;12.53;;
3347;SDS011;1687;49.540;8.574;2024-03-02T02:19:15;24.40;;;10.63;;
3347;SDS011;1687;49.540;8.574;2024-03-02T02:21:44;24.10;;;11.37;;
3347;SDS011;1687;49.540;8.574;2024-03-02T02:24:10;23.33;;;13.10;;
3347;SDS011;1687;49.540;8.574;2024-03-02T02:26:36;26.33;;;11.13;;
3347;SDS011;1687;49.540;8.574;2024-03-02T02:29:02;31.20;;;11.80;;
3347;SDS011;1687;49.540;8.574;2024-03-02T02:31:36;22.03;;;11.67;;
3347;SDS011;1687;49.540;8.574;2024-03-02T02:34:05;28.27;;;11.73;;
3347;SDS011;1687;49.540;8.574;2024-03-02T02:36:32;31.60;;;12.13;;
3347;SDS011;1687;49.540;8.574;2024-03-02T02:38:59;29.67;;;11.67;;
3347;SDS011;1687;49.540;8.574;2024-03-02T02:41:29;26.80;;;12.50;;
3347;SDS011;1687;49.540;8.574;2024-03-02T02:43:55;22.23;;;11.93;;
3347;SDS011;1687;49.540;8.574;2024-03-02T02:46:21;24.90;;;11.63;;
3347;SDS011;1687;49.540;8.574;2024-03-02T02:48:47;32.57;;;13.33;;
3347;SDS011;1687;49.540;8.574;2024-03-02T02:51:12;28.40;;;12.10;;
3347;SDS011;1687;49.540;8.574;2024-03-02T02:53:38;29.53;;;11.60;;
3347;SDS011;1687;49.540;8.574;2024-03-02T02:56:06;26.20;;;12.87;;
3347;SDS011;1687;49.540;8.574;2024-03-02T02:58:32;25.70;;;12.27;;
3347;SDS011;1687;49.540;8.574;2024-03-02T03:00:57;29.70;;;13.93;;
3347;SDS011;1687;49.540;8.574;2024-03-02T03:03:23;30.30;;;13.67;;
3347;SDS011;1687;49.540;8.574;2024-03-02T03:05:49;29.17;;;13.10;;
3347;SDS011;1687;49.540;8.574;2024-03-02T03:08:15;25.80;;;12.63;;
3347;SDS011;1687;49.540;8.574;2024-03-02T03:10:41;23.63;;;12.40;;
3347;SDS011;1687;49.540;8.574;2024-03-02T03:13:07;32.23;;;14.07;;
3347;SDS011;1687;49.540;8.574;2024-03-02T03:15:34;26.57;;;12.90;;
3347;SDS011;1687;49.540;8.574;2024-03-02T03:18:01;28.47;;;12.80;;
3347;SDS011;1687;49.540;8.574;2024-03-02T03:20:32;26.50;;;12.43;;
3347;SDS011;1687;49.540;8.574;2024-03-02T03:22:58;28.20;;;13.57;;
3347;SDS011;1687;49.540;8.574;2024-03-02T03:25:25;25.33;;;13.87;;
3347;SDS011;1687;49.540;8.574;2024-03-02T03:27:52;23.87;;;13.17;;
3347;SDS011;1687;49.540;8.574;2024-03-02T03:30:17;24.30;;;10.60;;
3347;SDS011;1687;49.540;8.574;2024-03-02T03:32:43;25.13;;;12.97;;
3347;SDS011;1687;49.540;8.574;2024-03-02T03:35:09;25.77;;;12.73;;
3347;SDS011;1687;49.540;8.574;2024-03-02T03:37:35;23.47;;;12.40;;
3347;SDS011;1687;49.540;8.574;2024-03-02T03:40:01;22.47;;;11.13;;
3347;SDS011;1687;49.540;8.574;2024-03-02T03:42:27;26.23;;;13.50;;
3347;SDS011;1687;49.540;8.574;2024-03-02T03:44:53;25.97;;;11.93;;
3347;SDS011;1687;49.540;8.574;2024-03-02T03:47:19;24.57;;;11.77;;
3347;SDS011;1687;49.540;8.574;2024-03-02T03:49:45;23.63;;;12.63;;
3347;SDS011;1687;49.540;8.574;2024-03-02T03:52:11;30.07;;;13.93;;
3347;SDS011;1687;49.540;8.574;2024-03-02T03:54:36;22.87;;;11.70;;
3347;SDS011;1687;49.540;8.574;2024-03-02T03:57:03;21.37;;;11.40;;
3347;SDS011;1687;49.540;8.574;2024-03-02T03:59:29;26.93;;;11.90;;
3347;SDS011;1687;49.540;8.574;2024-03-02T04:01:55;28.60;;;12.50;;
3347;SDS011;1687;49.540;8.574;2024-03-02T04:04:21;25.20;;;11.63;;
3347;SDS011;1687;49.540;8.574;2024-03-02T04:06:47;27.30;;;12.47;;
3347;SDS011;1687;49.540;8.574;2024-03-02T04:09:13;24.80;;;12.10;;
3347;SDS011;1687;49.540;8.574;2024-03-02T04:11:38;28.40;;;14.43;;
3347;SDS011;1687;49.540;8.574;2024-03-02T04:14:04;25.97;;;13.03;;
3347;SDS011;1687;49.540;8.574;2024-03-02T04:16:31;22.90;;;11.80;;
3347;SDS011;1687;49.540;8.574;2024-03-02T04:18:56;19.27;;;10.23;;
3347;SDS011;1687;49.540;8.574;2024-03-02T04:21:22;21.83;;;11.17;;
3347;SDS011;1687;49.540;8.574;2024-03-02T04:23:48;22.17;;;11.17;;
3347;SDS011;1687;49.540;8.574;2024-03-02T04:26:13;23.80;;;12.40;;
3347;SDS011;1687;49.540;8.574;2024-03-02T04:28:40;24.70;;;11.30;;
3347;SDS011;1687;49.540;8.574;2024-03-02T04:31:05;22.37;;;12.00;;
3347;SDS011;1687;49.540;8.574;2024-03-02T04:33:31;26.60;;;12.67;;
3347;SDS011;1687;49.540;8.574;2024-03-02T04:35:57;30.17;;;13.57;;
3347;SDS011;1687;49.540;8.574;2024-03-02T04:38:22;21.60;;;11.80;;
3347;SDS011;1687;49.540;8.574;2024-03-02T04:40:48;22.43;;;10.83;;
3347;SDS011;1687;49.540;8.574;2024-03-02T04:43:14;25.27;;;12.20;;
3347;SDS011;1687;49.540;8.574;2024-03-02T04:45:41;20.80;;;11.10;;
3347;SDS011;1687;49.540;8.574;2024-03-02T04:48:07;23.80;;;11.97;;
3347;SDS011;1687;49.540;8.574;2024-03-02T04:50:33;29.53;;;12.53;;
3347;SDS011;1687;49.540;8.574;2024-03-02T04:52:59;22.70;;;10.97;;
3347;SDS011;1687;49.540;8.574;2024-03-02T04:55:25;22.80;;;11.80;;
3347;SDS011;1687;49.540;8.574;2024-03-02T04:58:11;19.73;;;10.90;;
3347;SDS011;1687;49.540;8.574;2024-03-02T05:00:36;28.33;;;12.40;;
3347;SDS011;1687;49.540;8.574;2024-03-02T05:03:02;22.57;;;10.93;;
3347;SDS011;1687;49.540;8.574;2024-03-02T05:05:28;20.20;;;11.03;;
3347;SDS011;1687;49.540;8.574;2024-03-02T05:07:54;19.50;;;11.23;;
3347;SDS011;1687;49.540;8.574;2024-03-02T05:10:19;27.47;;;11.90;;
3347;SDS011;1687;49.540;8.574;2024-03-02T05:12:45;23.33;;;11.40;;
3347;SDS011;1687;49.540;8.574;2024-03-02T05:15:12;26.93;;;12.17;;
3347;SDS011;1687;49.540;8.574;2024-03-02T05:17:39;23.63;;;12.03;;
3347;SDS011;1687;49.540;8.574;2024-03-02T05:20:08;21.93;;;11.50;;
3347;SDS011;1687;49.540;8.574;2024-03-02T05:22:34;21.60;;;12.70;;
3347;SDS011;1687;49.540;8.574;2024-03-02T05:25:01;25.27;;;10.90;;
3347;SDS011;1687;49.540;8.574;2024-03-02T05:27:28;25.13;;;13.10;;
3347;SDS011;1687;49.540;8.574;2024-03-02T05:29:53;31.40;;;13.70;;
3347;SDS011;1687;49.540;8.574;2024-03-02T05:32:19;24.07;;;12.53;;
3347;SDS011;1687;49.540;8.574;2024-03-02T05:34:45;23.93;;;11.83;;
3347;SDS011;1687;49.540;8.574;2024-03-02T05:37:11;22.20;;;11.47;;
3347;SDS011;1687;49.540;8.574;2024-03-02T05:39:36;25.03;;;12.30;;
3347;SDS011;1687;49.540;8.574;2024-03-02T05:42:02;28.43;;;13.27;;
3347;SDS011;1687;49.540;8.574;2024-03-02T05:44:28;23.83;;;11.70;;
3347;SDS011;1687;49.540;8.574;2024-03-02T05:46:54;21.13;;;11.23;;
3347;SDS011;1687;49.540;8.574;2024-03-02T05:49:20;25.57;;;11.40;;
3347;SDS011;1687;49.540;8.574;2024-03-02T05:51:46;17.60;;;10.67;;
3347;SDS011;1687;49.540;8.574;2024-03-02T05:54:12;20.17;;;12.10;;
3347;SDS011;1687;49.540;8.574;2024-03-02T05:56:37;24.20;;;11.67;;
3347;SDS011;1687;49.540;8.574;2024-03-02T05:59:03;26.67;;;11.80;;
3347;SDS011;1687;49.540;8.574;2024-03-02T06:01:34;21.67;;;12.00;;
3347;SDS011;1687;49.540;8.574;2024-03-02T06:04:00;28.87;;;12.77;;
3347;SDS011;1687;49.540;8.574;2024-03-02T06:06:26;27.47;;;13.40;;
3347;SDS011;1687;49.540;8.574;2024-03-02T06:08:52;29.47;;;13.50;;
3347;SDS011;1687;49.540;8.574;2024-03-02T06:11:20;29.23;;;13.00;;
3347;SDS011;1687;49.540;8.574;2024-03-02T06:13:46;30.63;;;15.93;;
3347;SDS011;1687;49.540;8.574;2024-03-02T06:16:12;28.27;;;14.50;;
3347;SDS011;1687;49.540;8.574;2024-03-02T06:18:37;33.43;;;13.80;;
3347;SDS011;1687;49.540;8.574;2024-03-02T06:21:04;27.53;;;14.63;;
3347;SDS011;1687;49.540;8.574;2024-03-02T06:23:29;23.27;;;12.13;;
3347;SDS011;1687;49.540;8.574;2024-03-02T06:25:55;26.87;;;13.87;;
3347;SDS011;1687;49.540;8.574;2024-03-02T06:28:21;27.30;;;13.33;;
3347;SDS011;1687;49.540;8.574;2024-03-02T06:30:47;29.87;;;12.87;;
3347;SDS011;1687;49.540;8.574;2024-03-02T06:33:12;25.80;;;12.60;;
3347;SDS011;1687;49.540;8.574;2024-03-02T06:35:38;24.20;;;11.80;;
3347;SDS011;1687;49.540;8.574;2024-03-02T06:38:04;34.70;;;12.33;;
3347;SDS011;1687;49.540;8.574;2024-03-02T06:40:30;25.60;;;11.87;;
3347;SDS011;1687;49.540;8.574;2024-03-02T06:42:55;27.10;;;14.30;;
3347;SDS011;1687;49.540;8.574;2024-03-02T06:45:21;28.60;;;13.67;;
3347;SDS011;1687;49.540;8.574;2024-03-02T06:47:47;33.33;;;14.90;;
3347;SDS011;1687;49.540;8.574;2024-03-02T06:50:12;27.17;;;14.20;;
3347;SDS011;1687;49.540;8.574;2024-03-02T06:52:38;25.93;;;13.00;;
3347;SDS011;1687;49.540;8.574;2024-03-02T06:55:04;23.77;;;12.43;;
3347;SDS011;1687;49.540;8.574;2024-03-02T06:57:31;27.10;;;12.37;;
3347;SDS011;1687;49.540;8.574;2024-03-02T06:59:56;30.70;;;12.77;;
3347;SDS011;1687;49.540;8.574;2024-03-02T07:02:24;27.83;;;13.30;;
3347;SDS011;1687;49.540;8.574;2024-03-02T07:04:52;23.23;;;12.80;;
3347;SDS011;1687;49.540;8.574;2024-03-02T07:07:18;21.50;;;12.00;;
3347;SDS011;1687;49.540;8.574;2024-03-02T07:09:44;30.37;;;13.73;;
3347;SDS011;1687;49.540;8.574;2024-03-02T07:12:09;23.73;;;12.30;;
3347;SDS011;1687;49.540;8.574;2024-03-02T07:14:35;28.33;;;15.43;;
3347;SDS011;1687;49.540;8.574;2024-03-02T07:17:19;23.83;;;13.57;;
3347;SDS011;1687;49.540;8.574;2024-03-02T07:19:45;30.30;;;15.20;;
3347;SDS011;1687;49.540;8.574;2024-03-02T07:22:11;26.20;;;14.33;;
3347;SDS011;1687;49.540;8.574;2024-03-02T07:24:40;30.77;;;16.53;;
3347;SDS011;1687;49.540;8.574;2024-03-02T07:27:07;35.30;;;15.53;;
3347;SDS011;1687;49.540;8.574;2024-03-02T07:29:34;32.33;;;16.70;;
3347;SDS011;1687;49.540;8.574;2024-03-02T07:31:59;33.80;;;17.03;;
3347;SDS011;1687;49.540;8.574;2024-03-02T07:34:25;35.87;;;16.80;;
3347;SDS011;1687;49.540;8.574;2024-03-02T07:36:51;43.67;;;18.10;;
3347;SDS011;1687;49.540;8.574;2024-03-02T07:39:16;33.43;;;15.40;;
3347;SDS011;1687;49.540;8.574;2024-03-02T07:41:42;39.83;;;18.23;;
3347;SDS011;1687;49.540;8.574;2024-03-02T07:44:08;33.10;;;16.77;;
3347;SDS011;1687;49.540;8.574;2024-03-02T07:46:34;34.67;;;15.77;;
3347;SDS011;1687;49.540;8.574;2024-03-02T07:49:00;35.47;;;16.70;;
3347;SDS011;1687;49.540;8.574;2024-03-02T07:51:25;38.93;;;17.80;;
3347;SDS011;1687;49.540;8.574;2024-03-02T07:53:51;39.83;;;18.13;;
3347;SDS011;1687;49.540;8.574;2024-03-02T07:56:17;39.53;;;17.03;;
3347;SDS011;1687;49.540;8.574;2024-03-02T07:58:47;35.70;;;14.53;;
3347;SDS011;1687;49.540;8.574;2024-03-02T08:01:16;30.07;;;15.13;;
3347;SDS011;1687;49.540;8.574;2024-03-02T08:03:42;21.60;;;12.60;;
3347;SDS011;1687;49.540;8.574;2024-03-02T08:06:13;31.00;;;13.83;;
3347;SDS011;1687;49.540;8.574;2024-03-02T08:08:40;23.87;;;12.60;;
3347;SDS011;1687;49.540;8.574;2024-03-02T08:11:06;28.97;;;14.00;;
3347;SDS011;1687;49.540;8.574;2024-03-02T08:13:31;27.43;;;13.13;;
3347;SDS011;1687;49.540;8.574;2024-03-02T08:15:57;28.37;;;13.93;;
3347;SDS011;1687;49.540;8.574;2024-03-02T08:18:23;25.53;;;13.20;;
3347;SDS011;1687;49.540;8.574;2024-03-02T08:20:49;25.57;;;12.80;;
3347;SDS011;1687;49.540;8.574;2024-03-02T08:23:15;21.17;;;11.00;;
3347;SDS011;1687;49.540;8.574;2024-03-02T08:25:41;25.03;;;12.70;;
3347;SDS011;1687;49.540;8.574;2024-03-02T08:28:07;24.93;;;12.20;;
3347;SDS011;1687;49.540;8.574;2024-03-02T08:30:32;21.87;;;12.53;;
3347;SDS011;1687;49.540;8.574;2024-03-02T08:32:59;22.33;;;11.63;;
3347;SDS011;1687;49.540;8.574;2024-03-02T08:35:25;24.80;;;12.17;;
3347;SDS011;1687;49.540;8.574;2024-03-02T08:37:50;25.97;;;11.50;;
3347;SDS011;1687;49.540;8.574;2024-03-02T08:40:16;22.47;;;12.03;;
3347;SDS011;1687;49.540;8.574;2024-03-02T08:42:42;21.10;;;11.87;;
3347;SDS011;1687;49.540;8.574;2024-03-02T08:45:08;21.10;;;11.80;;
3347;SDS011;1687;49.540;8.574;2024-03-02T08:47:34;24.93;;;12.10;;
3347;SDS011;1687;49.540;8.574;2024-03-02T08:50:00;25.57;;;11.97;;
3347;SDS011;1687;49.540;8.574;2024-03-02T08:52:26;28.33;;;12.03;;
3347;SDS011;1687;49.540;8.574;2024-03-02T08:54:51;22.77;;;10.63;;
3347;SDS011;1687;49.540;8.574;2024-03-02T08:57:17;22.60;;;11.20;;
3347;SDS011;1687;49.540;8.574;2024-03-02T08:59:43;24.63;;;12.17;;
3347;SDS011;1687;49.540;8.574;2024-03-02T09:02:09;26.40;;;10.60;;
3347;SDS011;1687;49.540;8.574;2024-03-02T09:04:35;23.73;;;11.20;;
3347;SDS011;1687;49.540;8.574;2024-03-02T09:07:01;27.70;;;11.70;;
3347;SDS011;1687;49.540;8.574;2024-03-02T09:09:27;23.50;;;11.50;;
3347;SDS011;1687;49.540;8.574;2024-03-02T09:11:52;24.83;;;10.60;;
3347;SDS011;1687;49.540;8.574;2024-03-02T09:14:22;25.13;;;12.57;;
3347;SDS011;1687;49.540;8.574;2024-03-02T09:16:48;25.33;;;11.90;;
3347;SDS011;1687;49.540;8.574;2024-03-02T09:19:14;20.73;;;10.83;;
3347;SDS011;1687;49.540;8.574;2024-03-02T09:21:39;30.20;;;12.30;;
3347;SDS011;1687;49.540;8.574;2024-03-02T09:24:07;27.37;;;12.73;;
3347;SDS011;1687;49.540;8.574;2024-03-02T09:26:33;25.87;;;11.73;;
3347;SDS011;1687;49.540;8.574;2024-03-02T09:28:58;27.23;;;11.20;;
3347;SDS011;1687;49.540;8.574;2024-03-02T09:31:24;20.80;;;11.00;;
3347;SDS011;1687;49.540;8.574;2024-03-02T09:33:50;18.77;;;9.50;;
3347;SDS011;1687;49.540;8.574;2024-03-02T09:36:22;22.33;;;10.80;;
3347;SDS011;1687;49.540;8.574;2024-03-02T09:38:48;21.03;;;10.13;;
3347;SDS011;1687;49.540;8.574;2024-03-02T09:41:14;20.47;;;9.60;;
3347;SDS011;1687;49.540;8.574;2024-03-02T09:43:40;18.13;;;9.60;;
3347;SDS011;1687;49.540;8.574;2024-03-02T09:46:09;22.40;;;10.33;;
3347;SDS011;1687;49.540;8.574;2024-03-02T09:48:35;24.33;;;10.60;;
3347;SDS011;1687;49.540;8.574;2024-03-02T09:51:01;23.37;;;10.20;;
3347;SDS011;1687;49.540;8.574;2024-03-02T09:53:32;20.20;;;9.50;;
3347;SDS011;1687;49.540;8.574;2024-03-02T09:55:59;16.83;;;9.20;;
3347;SDS011;1687;49.540;8.574;2024-03-02T09:58:25;16.57;;;8.83;;
3347;SDS011;1687;49.540;8.574;2024-03-02T10:00:51;17.23;;;9.60;;
3347;SDS011;1687;49.540;8.574;2024-03-02T10:03:18;17.53;;;8.93;;
3347;SDS011;1687;49.540;8.574;2024-03-02T10:05:44;16.83;;;9.17;;
3347;SDS011;1687;49.540;8.574;2024-03-02T10:08:10;16.43;;;7.43;;
3347;SDS011;1687;49.540;8.574;2024-03-02T10:10:37;16.87;;;8.93;;
3347;SDS011;1687;49.540;8.574;2024-03-02T10:13:08;16.57;;;7.83;;
3347;SDS011;1687;49.540;8.574;2024-03-02T10:15:36;15.57;;;8.40;;
3347;SDS011;1687;49.540;8.574;2024-03-02T10:18:03;14.07;;;7.80;;
3347;SDS011;1687;49.540;8.574;2024-03-02T10:20:30;14.20;;;8.07;;
3347;SDS011;1687;49.540;8.574;2024-03-02T10:23:12;13.83;;;6.70;;
3347;SDS011;1687;49.540;8.574;2024-03-02T10:25:40;11.43;;;8.10;;
3347;SDS011;1687;49.540;8.574;2024-03-02T10:28:06;19.20;;;8.13;;
3347;SDS011;1687;49.540;8.574;2024-03-02T10:30:35;15.53;;;8.40;;
3347;SDS011;1687;49.540;8.574;2024-03-02T10:33:01;13.90;;;8.60;;
3347;SDS011;1687;49.540;8.574;2024-03-02T10:35:28;20.80;;;8.70;;
3347;SDS011;1687;49.540;8.574;2024-03-02T10:37:56;19.97;;;8.03;;
3347;SDS011;1687;49.540;8.574;2024-03-02T10:40:24;16.53;;;6.97;;
3347;SDS011;1687;49.540;8.574;2024-03-02T10:42:51;14.17;;;6.43;;
3347;SDS011;1687;49.540;8.574;2024-03-02T10:45:17;14.90;;;7.83;;
3347;SDS011;1687;49.540;8.574;2024-03-02T10:47:47;14.27;;;7.03;;
3347;SDS011;1687;49.540;8.574;2024-03-02T10:50:13;14.07;;;7.80;;
3347;SDS011;1687;49.540;8.574;2024-03-02T10:52:39;14.20;;;7.20;;
3347;SDS011;1687;49.540;8.574;2024-03-02T10:55:05;12.27;;;7.33;;
3347;SDS011;1687;49.540;8.574;2024-03-02T10:57:41;24.60;;;7.53;;
3347;SDS011;1687;49.540;8.574;2024-03-02T11:00:14;18.50;;;7.13;;
3347;SDS011;1687;49.540;8.574;2024-03-02T11:02:46;12.83;;;5.27;;
3347;SDS011;1687;49.540;8.574;2024-03-02T11:05:21;6.70;;;4.00;;
3347;SDS011;1687;49.540;8.574;2024-03-02T11:08:02;6.70;;;4.20;;
3347;SDS011;1687;49.540;8.574;2024-03-02T11:10:41;11.43;;;4.63;;
3347;SDS011;1687;49.540;8.574;2024-03-02T11:13:16;10.90;;;5.13;;
3347;SDS011;1687;49.540;8.574;2024-03-02T11:15:50;9.90;;;4.63;;
3347;SDS011;1687;49.540;8.574;2024-03-02T11:18:20;11.90;;;6.60;;
3347;SDS011;1687;49.540;8.574;2024-03-02T11:20:46;14.57;;;8.30;;
3347;SDS011;1687;49.540;8.574;2024-03-02T11:23:13;9.80;;;5.90;;
3347;SDS011;1687;49.540;8.574;2024-03-02T11:25:39;9.43;;;5.60;;
3347;SDS011;1687;49.540;8.574;2024-03-02T11:28:07;10.37;;;4.87;;
3347;SDS011;1687;49.540;8.574;2024-03-02T11:35:32;12.33;;;5.70;;
3347;SDS011;1687;49.540;8.574;2024-03-02T11:37:59;8.50;;;4.57;;
3347;SDS011;1687;49.540;8.574;2024-03-02T11:40:28;10.90;;;4.57;;
3347;SDS011;1687;49.540;8.574;2024-03-02T11:42:55;8.77;;;5.37;;
3347;SDS011;1687;49.540;8.574;2024-03-02T11:45:25;7.00;;;3.63;;
3347;SDS011;1687;49.540;8.574;2024-03-02T11:47:55;8.83;;;3.53;;
3347;SDS011;1687;49.540;8.574;2024-03-02T11:53:02;7.50;;;3.27;;
3347;SDS011;1687;49.540;8.574;2024-03-02T11:55:31;7.63;;;3.77;;
3347;SDS011;1687;49.540;8.574;2024-03-02T11:58:02;8.20;;;2.90;;
3347;SDS011;1687;49.540;8.574;2024-03-02T12:00:31;5.57;;;3.00;;
3347;SDS011;1687;49.540;8.574;2024-03-02T12:03:01;4.80;;;2.10;;
3347;SDS011;1687;49.540;8.574;2024-03-02T12:05:32;4.30;;;2.20;;
3347;SDS011;1687;49.540;8.574;2024-03-02T12:07:59;4.47;;;1.97;;
3347;SDS011;1687;49.540;8.574;2024-03-02T12:10:33;3.73;;;1.80;;
3347;SDS011;1687;49.540;8.574;2024-03-02T12:13:01;3.50;;;1.60;;
3347;SDS011;1687;49.540;8.574;2024-03-02T12:15:29;5.10;;;2.30;;
3347;SDS011;1687;49.540;8.574;2024-03-02T12:17:58;4.30;;;2.10;;
3347;SDS011;1687;49.540;8.574;2024-03-02T12:20:26;5.43;;;1.87;;
3347;SDS011;1687;49.540;8.574;2024-03-02T12:22:54;3.50;;;1.80;;
3347;SDS011;1687;49.540;8.574;2024-03-02T12:25:23;3.43;;;1.60;;
3347;SDS011;1687;49.540;8.574;2024-03-02T12:27:50;4.90;;;2.17;;
3347;SDS011;1687;49.540;8.574;2024-03-02T12:30:19;4.97;;;2.00;;
3347;SDS011;1687;49.540;8.574;2024-03-02T12:32:45;6.03;;;2.47;;
3347;SDS011;1687;49.540;8.574;2024-03-02T12:35:13;3.97;;;1.93;;
3347;SDS011;1687;49.540;8.574;2024-03-02T12:37:45;2.60;;;1.70;;
3347;SDS011;1687;49.540;8.574;2024-03-02T12:40:12;4.67;;;2.40;;
3347;SDS011;1687;49.540;8.574;2024-03-02T12:42:39;3.93;;;2.27;;
3347;SDS011;1687;49.540;8.574;2024-03-02T12:45:09;2.57;;;1.70;;
3347;SDS011;1687;49.540;8.574;2024-03-02T12:47:36;3.50;;;2.13;;
3347;SDS011;1687;49.540;8.574;2024-03-02T12:50:03;4.57;;;1.80;;
3347;SDS011;1687;49.540;8.574;2024-03-02T12:52:29;5.77;;;1.50;;
3347;SDS011;1687;49.540;8.574;2024-03-02T12:54:57;3.77;;;1.63;;
3347;SDS011;1687;49.540;8.574;2024-03-02T12:57:29;3.33;;;1.80;;
3347;SDS011;1687;49.540;8.574;2024-03-02T12:59:57;3.33;;;1.67;;
3347;SDS011;1687;49.540;8.574;2024-03-02T13:02:33;3.97;;;1.80;;
3347;SDS011;1687;49.540;8.574;2024-03-02T13:05:01;3.53;;;1.40;;
3347;SDS011;1687;49.540;8.574;2024-03-02T13:07:27;3.40;;;1.37;;
3347;SDS011;1687;49.540;8.574;2024-03-02T13:09:54;2.80;;;1.40;;
3347;SDS011;1687;49.540;8.574;2024-03-02T13:12:21;4.13;;;1.57;;
3347;SDS011;1687;49.540;8.574;2024-03-02T13:14:49;7.23;;;1.90;;
3347;SDS011;1687;49.540;8.574;2024-03-02T13:17:19;2.20;;;1.30;;
3347;SDS011;1687;49.540;8.574;2024-03-02T13:20:18;3.77;;;1.57;;
3347;SDS011;1687;49.540;8.574;2024-03-02T13:22:39;5.23;;;1.93;;
3347;SDS011;1687;49.540;8.574;2024-03-02T13:25:04;5.50;;;1.90;;
3347;SDS011;1687;49.540;8.574;2024-03-02T13:27:31;3.83;;;1.47;;
3347;SDS011;1687;49.540;8.574;2024-03-02T13:29:57;4.00;;;1.90;;
3347;SDS011;1687;49.540;8.574;2024-03-02T13:32:24;2.93;;;1.80;;
3347;SDS011;1687;49.540;8.574;2024-03-02T13:34:50;4.10;;;2.23;;
3347;SDS011;1687;49.540;8.574;2024-03-02T13:37:16;2.60;;;1.50;;
3347;SDS011;1687;49.540;8.574;2024-03-02T13:39:42;4.13;;;1.20;;
3347;SDS011;1687;49.540;8.574;2024-03-02T13:42:09;4.00;;;2.03;;
3347;SDS011;1687;49.540;8.574;2024-03-02T13:44:36;6.70;;;1.80;;
3347;SDS011;1687;49.540;8.574;2024-03-02T13:47:03;10.63;;;2.10;;
3347;SDS011;1687;49.540;8.574;2024-03-02T13:49:30;3.03;;;1.70;;
3347;SDS011;1687;49.540;8.574;2024-03-02T13:52:01;4.37;;;2.17;;
3347;SDS011;1687;49.540;8.574;2024-03-02T13:54:36;5.50;;;2.10;;
3347;SDS011;1687;49.540;8.574;2024-03-02T13:57:03;3.30;;;1.70;;
3347;SDS011;1687;49.540;8.574;2024-03-02T13:59:29;6.97;;;1.87;;
3347;SDS011;1687;49.540;8.574;2024-03-02T14:01:55;4.50;;;1.90;;
3347;SDS011;1687;49.540;8.574;2024-03-02T14:04:21;4.40;;;1.70;;
3347;SDS011;1687;49.540;8.574;2024-03-02T14:06:47;5.83;;;2.23;;
3347;SDS011;1687;49.540;8.574;2024-03-02T14:09:12;3.63;;;1.83;;
3347;SDS011;1687;49.540;8.574;2024-03-02T14:11:38;11.60;;;1.80;;
3347;SDS011;1687;49.540;8.574;2024-03-02T14:14:04;3.90;;;1.80;;
3347;SDS011;1687;49.540;8.574;2024-03-02T14:16:29;4.60;;;1.37;;
3347;SDS011;1687;49.540;8.574;2024-03-02T14:18:55;3.23;;;1.50;;
3347;SDS011;1687;49.540;8.574;2024-03-02T14:21:21;4.50;;;2.20;;
3347;SDS011;1687;49.540;8.574;2024-03-02T14:23:47;13.10;;;1.60;;
3347;SDS011;1687;49.540;8.574;2024-03-02T14:26:12;2.77;;;1.40;;
3347;SDS011;1687;49.540;8.574;2024-03-02T14:28:39;3.10;;;1.40;;
3347;SDS011;1687;49.540;8.574;2024-03-02T14:31:05;1.87;;;1.07;;
3347;SDS011;1687;49.540;8.574;2024-03-02T14:33:31;1.83;;;1.10;;
3347;SDS011;1687;49.540;8.574;2024-03-02T14:35:57;2.03;;;1.17;;
3347;SDS011;1687;49.540;8.574;2024-03-02T14:38:22;2.03;;;1.13;;
3347;SDS011;1687;49.540;8.574;2024-03-02T14:40:48;2.70;;;1.50;;
3347;SDS011;1687;49.540;8.574;2024-03-02T14:43:14;2.23;;;1.20;;
3347;SDS011;1687;49.540;8.574;2024-03-02T14:45:39;1.97;;;1.10;;
3347;SDS011;1687;49.540;8.574;2024-03-02T14:48:05;2.57;;;1.20;;
3347;SDS011;1687;49.540;8.574;2024-03-02T14:50:31;10.00;;;1.10;;
3347;SDS011;1687;49.540;8.574;2024-03-02T14:52:58;1.93;;;1.20;;
3347;SDS011;1687;49.540;8.574;2024-03-02T14:55:25;2.43;;;0.90;;
3347;SDS011;1687;49.540;8.574;2024-03-02T14:57:51;1.77;;;0.80;;
3347;SDS011;1687;49.540;8.574;2024-03-02T15:00:16;2.07;;;0.80;;
3347;SDS011;1687;49.540;8.574;2024-03-02T15:02:43;3.87;;;1.00;;
3347;SDS011;1687;49.540;8.574;2024-03-02T15:05:09;2.43;;;1.20;;